Abis Cuxhaven — PBYB — position and weather

sailwx.info

Track history (hours):
 
Tides and Currents Weather Stations Pressure Air Temp Water Temp Dewpoint Dewpoint Depression Visibility Wind Speed Wind Dir Waves Ship Positions

Abis Cuxhaven

Last reported at 2015-Apr-27 04:32 UTC. Time now 2015-Apr-28 02:08 UTC.
Position N 52°33' W 009°44'.

Length 114 m; draft 6.1 m.

Type: Cargo ship. MMSI: 246670000.

Date/timePositionNaut miles runAvg speedWind from/ knotsBaromVisibWave heightAir tempDewpointWater temp
2015-Apr-27 04:32N 52°33' W 009°44'8 8.2
2015-Apr-27 03:33N 52°29' W 009°56'14 9.2
2015-Apr-27 02:04N 52°21' W 010°15'5 8.5
2015-Apr-27 01:31N 52°19' W 010°21'9 9.0
2015-Apr-27 00:33N 52°13' W 010°32'10 9.3
2015-Apr-26 23:30N 52°07' W 010°44'9 8.5
2015-Apr-26 22:30N 51°58' W 010°45'26 8.5
2015-Apr-26 19:28N 51°35' W 010°26'8 9.0
2015-Apr-26 18:33N 51°30' W 010°15'10 9.0
2015-Apr-26 17:29N 51°25' W 010°03'8 9.0
2015-Apr-26 16:33N 51°19' W 009°52'9 9.3
2015-Apr-26 15:33N 51°13' W 009°41'10 9.8
2015-Apr-26 14:33N 51°07' W 009°29'248 8.5
2015-Apr-25 09:30N 49°57' W 003°15'130 9.3
2015-Apr-24 19:32N 50°32' E 000°02'1010.7
2015-Apr-24 18:33N 50°35' E 000°17'1010.3
2015-Apr-24 17:33N 50°38' E 000°33'9 9.4
2015-Apr-24 16:33N 50°43' E 000°45'9 8.5
2015-Apr-24 15:29N 50°48' E 000°57'16 8.2
2015-Apr-24 13:33N 50°58' E 001°16'1010.0
2015-Apr-24 12:34N 51°04' E 001°29'1211.7
2015-Apr-24 11:33N 51°12' E 001°43'1211.5
2015-Apr-24 10:33N 51°22' E 001°52'1010.2
2015-Apr-24 09:33N 51°30' E 002°01'10 9.7
2015-Apr-24 08:33N 51°38' E 002°12'9 9.5
2015-Apr-24 07:33N 51°45' E 002°22'9 9.1
2015-Apr-24 06:32N 51°53' E 002°30'9 9.1
2015-Apr-24 05:33N 52°02' E 002°28'9 8.0
2015-Apr-24 04:29N 52°10' E 002°26'8 8.6
2015-Apr-24 03:30N 52°18' E 002°23'9 9.5
2015-Apr-24 02:33N 52°27' E 002°20'2110.7
2015-Apr-24 00:33N 52°48' E 002°12'1111.1
2015-Apr-23 23:33N 52°58' E 002°05'1111.1
2015-Apr-23 22:33N 53°06' E 001°52'1110.5
2015-Apr-23 21:33N 53°11' E 001°36'1510.1
2015-Apr-23 20:05N 53°17' E 001°13'15 9.5
2015-Apr-23 18:33N 53°22' E 000°50'9 9.1
2015-Apr-23 17:34N 53°26' E 000°37'9 8.6
2015-Apr-23 16:33N 53°29' E 000°23'8 8.2
2015-Apr-23 15:34N 53°33' E 000°11'9 9.4
2015-Apr-23 14:33N 53°37' W 000°03'5 5.0
2015-Apr-23 13:33N 53°38' W 000°11'0 0.2
2015-Apr-23 12:33N 53°38' W 000°12'0 0.0
2015-Apr-23 11:33N 53°38' W 000°12'0 0.0
2015-Apr-23 10:33N 53°38' W 000°12'0 0.0
2015-Apr-23 09:33N 53°38' W 000°12'0 0.0
2015-Apr-23 08:33N 53°38' W 000°12'0 0.0
2015-Apr-23 07:33N 53°38' W 000°12'0 0.0
2015-Apr-23 06:33N 53°38' W 000°12'0 0.0
2015-Apr-23 05:30N 53°38' W 000°12'0 0.0
2015-Apr-23 04:33N 53°38' W 000°12'0 0.0
2015-Apr-23 03:33N 53°38' W 000°12'0 0.0
2015-Apr-23 02:33N 53°38' W 000°12'0 0.0
2015-Apr-23 01:33N 53°38' W 000°12'0 0.0
2015-Apr-23 00:33N 53°38' W 000°12'0 0.0
2015-Apr-22 23:33N 53°38' W 000°12'0 0.0
2015-Apr-22 22:30N 53°38' W 000°12'0 0.0
2015-Apr-22 21:33N 53°38' W 000°12'0 0.0
2015-Apr-22 20:33N 53°38' W 000°12'0 0.0
2015-Apr-22 19:33N 53°38' W 000°12'0 0.0
2015-Apr-22 18:33N 53°38' W 000°12'0 0.0
2015-Apr-22 17:33N 53°38' W 000°12'0 0.0
2015-Apr-22 16:33N 53°38' W 000°12'0 0.0
2015-Apr-22 15:33N 53°38' W 000°12'0 0.0
2015-Apr-22 14:33N 53°38' W 000°12'0 0.0
2015-Apr-22 13:33N 53°38' W 000°12'0 0.0
2015-Apr-22 12:33N 53°38' W 000°12'0 0.0
2015-Apr-22 11:33N 53°38' W 000°12'0 0.0
2015-Apr-22 10:33N 53°38' W 000°12'0 0.0
2015-Apr-22 09:33N 53°38' W 000°12'0 0.0
2015-Apr-22 08:33N 53°38' W 000°12'0 0.0
2015-Apr-22 07:33N 53°38' W 000°12'0 0.0
2015-Apr-22 06:30N 53°38' W 000°12'0 0.0
2015-Apr-22 05:33N 53°38' W 000°12'0 0.0
2015-Apr-22 04:33N 53°38' W 000°12'0 0.0
2015-Apr-22 03:33N 53°38' W 000°12'0 0.0
2015-Apr-22 02:27N 53°38' W 000°12'0 0.0
2015-Apr-22 01:24N 53°38' W 000°12'0 0.0
2015-Apr-22 00:33N 53°38' W 000°12'0 0.0
2015-Apr-21 23:33N 53°38' W 000°12'0 0.0
2015-Apr-21 22:33N 53°38' W 000°12'0 0.0
2015-Apr-21 21:33N 53°38' W 000°12'0 0.0
2015-Apr-21 20:33N 53°38' W 000°12'0 0.2
2015-Apr-21 19:33N 53°38' W 000°11'0 0.0
2015-Apr-21 18:33N 53°38' W 000°11'0 0.0
2015-Apr-21 17:33N 53°38' W 000°11'0 0.0
2015-Apr-21 16:33N 53°38' W 000°11'0 0.0
2015-Apr-21 15:33N 53°38' W 000°11'0 0.0
2015-Apr-21 14:33N 53°38' W 000°11'0 0.0
2015-Apr-21 13:33N 53°38' W 000°11'0 0.0
2015-Apr-21 12:33N 53°38' W 000°11'0 0.0
2015-Apr-21 11:33N 53°38' W 000°11'0 0.0
2015-Apr-21 10:33N 53°38' W 000°11'0 0.0
2015-Apr-21 09:33N 53°38' W 000°11'0 0.0
2015-Apr-21 08:33N 53°38' W 000°11'0 0.0
2015-Apr-21 07:33N 53°38' W 000°11'0 0.0
2015-Apr-21 06:33N 53°38' W 000°11'0 0.0
2015-Apr-21 05:33N 53°38' W 000°11'0 0.0
2015-Apr-21 04:33N 53°38' W 000°11'0 0.3
2015-Apr-21 03:33N 53°38' W 000°11'4 4.1
2015-Apr-21 02:33N 53°37' W 000°05'1010.1
2015-Apr-21 01:33N 53°33' E 000°11'5 5.3
2015-Apr-21 00:33N 53°33' E 000°20'4 4.4
2015-Apr-20 23:33N 53°35' E 000°27'0 0.0
2015-Apr-20 22:33N 53°35' E 000°27'0 0.0
2015-Apr-20 21:33N 53°35' E 000°27'0 0.2
2015-Apr-20 20:33N 53°35' E 000°27'0 0.0
2015-Apr-20 19:33N 53°35' E 000°27'0 0.0
2015-Apr-20 18:33N 53°35' E 000°27'0 0.0
2015-Apr-20 17:33N 53°35' E 000°27'0 0.1
2015-Apr-20 16:24N 53°35' E 000°26'0 0.3
2015-Apr-20 15:27N 53°35' E 000°26'0 0.1
2015-Apr-20 14:30N 53°36' E 000°26'0 0.1
2015-Apr-20 13:12N 53°36' E 000°26'0 0.0
2015-Apr-20 12:30N 53°36' E 000°26'2 2.2
2015-Apr-20 11:33N 53°36' E 000°29'9 8.7
2015-Apr-20 10:33N 53°39' E 000°43'56 6.6
2015-Apr-20 02:12N 53°50' E 002°16'8210.1
2015-Apr-19 18:04N 54°03' E 004°33'8 9.6
2015-Apr-19 17:13N 54°04' E 004°47'710.0
2015-Apr-19 16:33N 54°05' E 004°58'1110.8
2015-Apr-19 15:33N 54°06' E 005°16'1111.1
2015-Apr-19 14:33N 54°08' E 005°35'1111.1
2015-Apr-19 13:31N 54°10' E 005°54'41 9.9
2015-Apr-19 09:21N 54°12' E 007°05'7 8.8
2015-Apr-19 08:34N 54°12' E 007°17'7 7.5
2015-Apr-19 07:34N 54°11' E 007°29'8 8.4
2015-Apr-19 06:33N 54°04' E 007°36'8 8.1
2015-Apr-19 05:33N 54°01' E 007°49'10 9.9
2015-Apr-19 04:33N 54°01' E 008°06'1111.1
2015-Apr-19 03:33N 53°59' E 008°24'1312.6
2015-Apr-19 02:33N 53°53' E 008°43'1010.1
2015-Apr-19 01:33N 53°51' E 008°60'6 5.9
2015-Apr-19 00:34N 53°54' E 009°09'0 0.0
2015-Apr-18 23:34N 53°54' E 009°09'1 1.3
2015-Apr-18 22:33N 53°55' E 009°10'8 7.9
2015-Apr-18 21:33N 54°01' E 009°18'4 4.0
2015-Apr-18 20:34N 54°05' E 009°19'8 7.5
2015-Apr-18 19:32N 54°11' E 009°28'7 7.0
2015-Apr-18 18:29N 54°16' E 009°37'6 6.3
2015-Apr-18 17:33N 54°20' E 009°44'8 7.8
2015-Apr-18 16:33N 54°20' E 009°57'5 5.2
2015-Apr-18 15:34N 54°22' E 010°05'3 2.7
2015-Apr-18 14:33N 54°22' E 010°10'0 0.3
2015-Apr-18 13:33N 54°22' E 010°10'8 7.4
2015-Apr-18 12:32N 54°29' E 010°16'9 9.7
2015-Apr-18 11:33N 54°33' E 010°31'10 9.8
2015-Apr-18 10:33N 54°35' E 010°48'1010.3
2015-Apr-18 09:33N 54°36' E 011°06'1010.1
2015-Apr-18 08:33N 54°33' E 011°22'1010.3
2015-Apr-18 07:33N 54°29' E 011°38'10 9.7
2015-Apr-18 06:33N 54°26' E 011°54'10 9.6
2015-Apr-18 05:33N 54°28' E 012°10'10 9.5
2015-Apr-18 04:33N 54°37' E 012°16'10 9.8
2015-Apr-18 03:32N 54°43' E 012°31'10 9.8
2015-Apr-18 02:30N 54°47' E 012°46'1010.1
2015-Apr-18 01:34N 54°47' E 013°03'1010.1
2015-Apr-18 00:33N 54°47' E 013°21'9 9.0
2015-Apr-17 23:32N 54°45' E 013°36'10 9.9
2015-Apr-17 22:33N 54°36' E 013°44'1010.0
2015-Apr-17 21:33N 54°27' E 013°52'8 8.2
2015-Apr-17 20:33N 54°19' E 013°49'9 8.9
2015-Apr-17 19:33N 54°12' E 013°39'9 9.0
2015-Apr-17 18:33N 54°13' E 013°23'8 8.2
2015-Apr-17 17:33N 54°17' E 013°11'3 3.1
2015-Apr-17 16:33N 54°18' E 013°07'0 0.0
2015-Apr-17 15:33N 54°18' E 013°07'0 0.0
2015-Apr-17 14:33N 54°18' E 013°07'0 0.0
2015-Apr-17 13:33N 54°18' E 013°07'0 0.0
2015-Apr-17 12:33N 54°18' E 013°07'0 0.0
2015-Apr-17 11:33N 54°18' E 013°07'0 0.0
2015-Apr-17 10:33N 54°18' E 013°07'0 0.0
2015-Apr-17 09:33N 54°18' E 013°07'0 0.0
2015-Apr-17 08:33N 54°18' E 013°07'0 0.0
2015-Apr-17 07:33N 54°18' E 013°07'0 0.0
2015-Apr-17 06:33N 54°18' E 013°07'0 0.0
2015-Apr-17 05:33N 54°18' E 013°07'  
Track history (hours):
 
Tides and Currents Weather Stations Pressure Air Temp Water Temp Dewpoint Dewpoint Depression Visibility Wind Speed Wind Dir Waves Ship Positions

Abis Cuxhaven

Last reported at 2015-Apr-27 04:32 UTC. Time now 2015-Apr-28 02:08 UTC.
Position N 52°33' W 009°44'.

Length 114 m; draft 6.1 m.

Type: Cargo ship. MMSI: 246670000.

Date/timePositionNaut miles runAvg speedWind from/ knotsBaromVisibWave heightAir tempDewpointWater temp
2015-Apr-27 04:32N 52°33' W 009°44'8 8.2
2015-Apr-27 03:33N 52°29' W 009°56'14 9.2
2015-Apr-27 02:04N 52°21' W 010°15'5 8.5
2015-Apr-27 01:31N 52°19' W 010°21'9 9.0
2015-Apr-27 00:33N 52°13' W 010°32'10 9.3
2015-Apr-26 23:30N 52°07' W 010°44'9 8.5
2015-Apr-26 22:30N 51°58' W 010°45'26 8.5
2015-Apr-26 19:28N 51°35' W 010°26'8 9.0
2015-Apr-26 18:33N 51°30' W 010°15'10 9.0
2015-Apr-26 17:29N 51°25' W 010°03'8 9.0
2015-Apr-26 16:33N 51°19' W 009°52'9 9.3
2015-Apr-26 15:33N 51°13' W 009°41'10 9.8
2015-Apr-26 14:33N 51°07' W 009°29'248 8.5
2015-Apr-25 09:30N 49°57' W 003°15'130 9.3
2015-Apr-24 19:32N 50°32' E 000°02'1010.7
2015-Apr-24 18:33N 50°35' E 000°17'1010.3
2015-Apr-24 17:33N 50°38' E 000°33'9 9.4
2015-Apr-24 16:33N 50°43' E 000°45'9 8.5
2015-Apr-24 15:29N 50°48' E 000°57'16 8.2
2015-Apr-24 13:33N 50°58' E 001°16'1010.0
2015-Apr-24 12:34N 51°04' E 001°29'1211.7
2015-Apr-24 11:33N 51°12' E 001°43'1211.5
2015-Apr-24 10:33N 51°22' E 001°52'1010.2
2015-Apr-24 09:33N 51°30' E 002°01'10 9.7
2015-Apr-24 08:33N 51°38' E 002°12'9 9.5
2015-Apr-24 07:33N 51°45' E 002°22'9 9.1
2015-Apr-24 06:32N 51°53' E 002°30'9 9.1
2015-Apr-24 05:33N 52°02' E 002°28'9 8.0
2015-Apr-24 04:29N 52°10' E 002°26'8 8.6
2015-Apr-24 03:30N 52°18' E 002°23'9 9.5
2015-Apr-24 02:33N 52°27' E 002°20'2110.7
2015-Apr-24 00:33N 52°48' E 002°12'1111.1
2015-Apr-23 23:33N 52°58' E 002°05'1111.1
2015-Apr-23 22:33N 53°06' E 001°52'1110.5
2015-Apr-23 21:33N 53°11' E 001°36'1510.1
2015-Apr-23 20:05N 53°17' E 001°13'15 9.5
2015-Apr-23 18:33N 53°22' E 000°50'9 9.1
2015-Apr-23 17:34N 53°26' E 000°37'9 8.6
2015-Apr-23 16:33N 53°29' E 000°23'8 8.2
2015-Apr-23 15:34N 53°33' E 000°11'9 9.4
2015-Apr-23 14:33N 53°37' W 000°03'5 5.0
2015-Apr-23 13:33N 53°38' W 000°11'0 0.2
2015-Apr-23 12:33N 53°38' W 000°12'0 0.0
2015-Apr-23 11:33N 53°38' W 000°12'0 0.0
2015-Apr-23 10:33N 53°38' W 000°12'0 0.0
2015-Apr-23 09:33N 53°38' W 000°12'0 0.0
2015-Apr-23 08:33N 53°38' W 000°12'0 0.0
2015-Apr-23 07:33N 53°38' W 000°12'0 0.0
2015-Apr-23 06:33N 53°38' W 000°12'0 0.0
2015-Apr-23 05:30N 53°38' W 000°12'0 0.0
2015-Apr-23 04:33N 53°38' W 000°12'0 0.0
2015-Apr-23 03:33N 53°38' W 000°12'0 0.0
2015-Apr-23 02:33N 53°38' W 000°12'0 0.0
2015-Apr-23 01:33N 53°38' W 000°12'0 0.0
2015-Apr-23 00:33N 53°38' W 000°12'0 0.0
2015-Apr-22 23:33N 53°38' W 000°12'0 0.0
2015-Apr-22 22:30N 53°38' W 000°12'0 0.0
2015-Apr-22 21:33N 53°38' W 000°12'0 0.0
2015-Apr-22 20:33N 53°38' W 000°12'0 0.0
2015-Apr-22 19:33N 53°38' W 000°12'0 0.0
2015-Apr-22 18:33N 53°38' W 000°12'0 0.0
2015-Apr-22 17:33N 53°38' W 000°12'0 0.0
2015-Apr-22 16:33N 53°38' W 000°12'0 0.0
2015-Apr-22 15:33N 53°38' W 000°12'0 0.0
2015-Apr-22 14:33N 53°38' W 000°12'0 0.0
2015-Apr-22 13:33N 53°38' W 000°12'0 0.0
2015-Apr-22 12:33N 53°38' W 000°12'0 0.0
2015-Apr-22 11:33N 53°38' W 000°12'0 0.0
2015-Apr-22 10:33N 53°38' W 000°12'0 0.0
2015-Apr-22 09:33N 53°38' W 000°12'0 0.0
2015-Apr-22 08:33N 53°38' W 000°12'0 0.0
2015-Apr-22 07:33N 53°38' W 000°12'0 0.0
2015-Apr-22 06:30N 53°38' W 000°12'0 0.0
2015-Apr-22 05:33N 53°38' W 000°12'0 0.0
2015-Apr-22 04:33N 53°38' W 000°12'0 0.0
2015-Apr-22 03:33N 53°38' W 000°12'0 0.0
2015-Apr-22 02:27N 53°38' W 000°12'0 0.0
2015-Apr-22 01:24N 53°38' W 000°12'0 0.0
2015-Apr-22 00:33N 53°38' W 000°12'0 0.0
2015-Apr-21 23:33N 53°38' W 000°12'0 0.0
2015-Apr-21 22:33N 53°38' W 000°12'0 0.0
2015-Apr-21 21:33N 53°38' W 000°12'0 0.0
2015-Apr-21 20:33N 53°38' W 000°12'0 0.2
2015-Apr-21 19:33N 53°38' W 000°11'0 0.0
2015-Apr-21 18:33N 53°38' W 000°11'0 0.0
2015-Apr-21 17:33N 53°38' W 000°11'0 0.0
2015-Apr-21 16:33N 53°38' W 000°11'0 0.0
2015-Apr-21 15:33N 53°38' W 000°11'0 0.0
2015-Apr-21 14:33N 53°38' W 000°11'0 0.0
2015-Apr-21 13:33N 53°38' W 000°11'0 0.0
2015-Apr-21 12:33N 53°38' W 000°11'0 0.0
2015-Apr-21 11:33N 53°38' W 000°11'0 0.0
2015-Apr-21 10:33N 53°38' W 000°11'0 0.0
2015-Apr-21 09:33N 53°38' W 000°11'0 0.0
2015-Apr-21 08:33N 53°38' W 000°11'0 0.0
2015-Apr-21 07:33N 53°38' W 000°11'0 0.0
2015-Apr-21 06:33N 53°38' W 000°11'0 0.0
2015-Apr-21 05:33N 53°38' W 000°11'0 0.0
2015-Apr-21 04:33N 53°38' W 000°11'0 0.3
2015-Apr-21 03:33N 53°38' W 000°11'4 4.1
2015-Apr-21 02:33N 53°37' W 000°05'1010.1
2015-Apr-21 01:33N 53°33' E 000°11'5 5.3
2015-Apr-21 00:33N 53°33' E 000°20'4 4.4
2015-Apr-20 23:33N 53°35' E 000°27'0 0.0
2015-Apr-20 22:33N 53°35' E 000°27'0 0.0
2015-Apr-20 21:33N 53°35' E 000°27'0 0.2
2015-Apr-20 20:33N 53°35' E 000°27'0 0.0
2015-Apr-20 19:33N 53°35' E 000°27'0 0.0
2015-Apr-20 18:33N 53°35' E 000°27'0 0.0
2015-Apr-20 17:33N 53°35' E 000°27'0 0.1
2015-Apr-20 16:24N 53°35' E 000°26'0 0.3
2015-Apr-20 15:27N 53°35' E 000°26'0 0.1
2015-Apr-20 14:30N 53°36' E 000°26'0 0.1
2015-Apr-20 13:12N 53°36' E 000°26'0 0.0
2015-Apr-20 12:30N 53°36' E 000°26'2 2.2
2015-Apr-20 11:33N 53°36' E 000°29'9 8.7
2015-Apr-20 10:33N 53°39' E 000°43'56 6.6
2015-Apr-20 02:12N 53°50' E 002°16'8210.1
2015-Apr-19 18:04N 54°03' E 004°33'8 9.6
2015-Apr-19 17:13N 54°04' E 004°47'710.0
2015-Apr-19 16:33N 54°05' E 004°58'1110.8
2015-Apr-19 15:33N 54°06' E 005°16'1111.1
2015-Apr-19 14:33N 54°08' E 005°35'1111.1
2015-Apr-19 13:31N 54°10' E 005°54'41 9.9
2015-Apr-19 09:21N 54°12' E 007°05'7 8.8
2015-Apr-19 08:34N 54°12' E 007°17'7 7.5
2015-Apr-19 07:34N 54°11' E 007°29'8 8.4
2015-Apr-19 06:33N 54°04' E 007°36'8 8.1
2015-Apr-19 05:33N 54°01' E 007°49'10 9.9
2015-Apr-19 04:33N 54°01' E 008°06'1111.1
2015-Apr-19 03:33N 53°59' E 008°24'1312.6
2015-Apr-19 02:33N 53°53' E 008°43'1010.1
2015-Apr-19 01:33N 53°51' E 008°60'6 5.9
2015-Apr-19 00:34N 53°54' E 009°09'0 0.0
2015-Apr-18 23:34N 53°54' E 009°09'1 1.3
2015-Apr-18 22:33N 53°55' E 009°10'8 7.9
2015-Apr-18 21:33N 54°01' E 009°18'4 4.0
2015-Apr-18 20:34N 54°05' E 009°19'8 7.5
2015-Apr-18 19:32N 54°11' E 009°28'7 7.0
2015-Apr-18 18:29N 54°16' E 009°37'6 6.3
2015-Apr-18 17:33N 54°20' E 009°44'8 7.8
2015-Apr-18 16:33N 54°20' E 009°57'5 5.2
2015-Apr-18 15:34N 54°22' E 010°05'3 2.7
2015-Apr-18 14:33N 54°22' E 010°10'0 0.3
2015-Apr-18 13:33N 54°22' E 010°10'8 7.4
2015-Apr-18 12:32N 54°29' E 010°16'9 9.7
2015-Apr-18 11:33N 54°33' E 010°31'10 9.8
2015-Apr-18 10:33N 54°35' E 010°48'1010.3
2015-Apr-18 09:33N 54°36' E 011°06'1010.1
2015-Apr-18 08:33N 54°33' E 011°22'1010.3
2015-Apr-18 07:33N 54°29' E 011°38'10 9.7
2015-Apr-18 06:33N 54°26' E 011°54'10 9.6
2015-Apr-18 05:33N 54°28' E 012°10'10 9.5
2015-Apr-18 04:33N 54°37' E 012°16'10 9.8
2015-Apr-18 03:32N 54°43' E 012°31'10 9.8
2015-Apr-18 02:30N 54°47' E 012°46'1010.1
2015-Apr-18 01:34N 54°47' E 013°03'1010.1
2015-Apr-18 00:33N 54°47' E 013°21'9 9.0
2015-Apr-17 23:32N 54°45' E 013°36'10 9.9
2015-Apr-17 22:33N 54°36' E 013°44'1010.0
2015-Apr-17 21:33N 54°27' E 013°52'8 8.2
2015-Apr-17 20:33N 54°19' E 013°49'9 8.9
2015-Apr-17 19:33N 54°12' E 013°39'9 9.0
2015-Apr-17 18:33N 54°13' E 013°23'8 8.2
2015-Apr-17 17:33N 54°17' E 013°11'3 3.1
2015-Apr-17 16:33N 54°18' E 013°07'0 0.0
2015-Apr-17 15:33N 54°18' E 013°07'0 0.0
2015-Apr-17 14:33N 54°18' E 013°07'0 0.0
2015-Apr-17 13:33N 54°18' E 013°07'0 0.0
2015-Apr-17 12:33N 54°18' E 013°07'0 0.0
2015-Apr-17 11:33N 54°18' E 013°07'0 0.0
2015-Apr-17 10:33N 54°18' E 013°07'0 0.0
2015-Apr-17 09:33N 54°18' E 013°07'0 0.0
2015-Apr-17 08:33N 54°18' E 013°07'0 0.0
2015-Apr-17 07:33N 54°18' E 013°07'0 0.0
2015-Apr-17 06:33N 54°18' E 013°07'0 0.0
2015-Apr-17 05:33N 54°18' E 013°07'  

Dump ship's entire track history